sensor_id;sensor_type;location;lat;lon;timestamp;P1;durP1;ratioP1;P2;durP2;ratioP2
21036;SDS011;10677;50.942;4.028;2023-02-28T00:01:26;14.45;;;7.03;;
21036;SDS011;10677;50.942;4.028;2023-02-28T00:03:52;13.38;;;7.22;;
21036;SDS011;10677;50.942;4.028;2023-02-28T00:06:17;15.43;;;6.57;;
21036;SDS011;10677;50.942;4.028;2023-02-28T00:08:43;15.15;;;7.38;;
21036;SDS011;10677;50.942;4.028;2023-02-28T00:11:10;11.23;;;7.22;;
21036;SDS011;10677;50.942;4.028;2023-02-28T00:13:40;15.18;;;7.90;;
21036;SDS011;10677;50.942;4.028;2023-02-28T00:16:09;15.52;;;7.57;;
21036;SDS011;10677;50.942;4.028;2023-02-28T00:18:37;13.88;;;7.63;;
21036;SDS011;10677;50.942;4.028;2023-02-28T00:21:03;13.93;;;6.55;;
21036;SDS011;10677;50.942;4.028;2023-02-28T00:23:29;14.27;;;8.15;;
21036;SDS011;10677;50.942;4.028;2023-02-28T00:25:54;14.00;;;7.78;;
21036;SDS011;10677;50.942;4.028;2023-02-28T00:28:20;13.10;;;7.70;;
21036;SDS011;10677;50.942;4.028;2023-02-28T00:30:47;12.65;;;7.55;;
21036;SDS011;10677;50.942;4.028;2023-02-28T00:33:12;16.95;;;8.43;;
21036;SDS011;10677;50.942;4.028;2023-02-28T00:35:38;15.05;;;8.65;;
21036;SDS011;10677;50.942;4.028;2023-02-28T00:38:04;14.13;;;8.40;;
21036;SDS011;10677;50.942;4.028;2023-02-28T00:40:30;12.25;;;8.10;;
21036;SDS011;10677;50.942;4.028;2023-02-28T00:42:55;13.80;;;7.97;;
21036;SDS011;10677;50.942;4.028;2023-02-28T00:45:21;12.93;;;7.93;;
21036;SDS011;10677;50.942;4.028;2023-02-28T00:47:46;19.17;;;8.00;;
21036;SDS011;10677;50.942;4.028;2023-02-28T00:50:15;15.07;;;7.13;;
21036;SDS011;10677;50.942;4.028;2023-02-28T00:52:42;12.05;;;7.20;;
21036;SDS011;10677;50.942;4.028;2023-02-28T00:55:08;14.73;;;7.63;;
21036;SDS011;10677;50.942;4.028;2023-02-28T00:57:34;15.05;;;7.97;;
21036;SDS011;10677;50.942;4.028;2023-02-28T01:00:00;13.02;;;7.80;;
21036;SDS011;10677;50.942;4.028;2023-02-28T01:02:26;13.25;;;7.25;;
21036;SDS011;10677;50.942;4.028;2023-02-28T01:04:52;13.00;;;7.60;;
21036;SDS011;10677;50.942;4.028;2023-02-28T01:07:18;14.30;;;8.13;;
21036;SDS011;10677;50.942;4.028;2023-02-28T01:09:44;13.77;;;7.38;;
21036;SDS011;10677;50.942;4.028;2023-02-28T01:12:09;15.45;;;7.80;;
21036;SDS011;10677;50.942;4.028;2023-02-28T01:14:35;13.15;;;7.93;;
21036;SDS011;10677;50.942;4.028;2023-02-28T01:17:01;13.38;;;8.15;;
21036;SDS011;10677;50.942;4.028;2023-02-28T01:19:26;12.45;;;7.47;;
21036;SDS011;10677;50.942;4.028;2023-02-28T01:21:52;11.05;;;7.35;;
21036;SDS011;10677;50.942;4.028;2023-02-28T01:24:18;13.88;;;7.50;;
21036;SDS011;10677;50.942;4.028;2023-02-28T01:26:44;15.10;;;7.50;;
21036;SDS011;10677;50.942;4.028;2023-02-28T01:29:09;17.63;;;7.55;;
21036;SDS011;10677;50.942;4.028;2023-02-28T01:31:35;17.23;;;7.82;;
21036;SDS011;10677;50.942;4.028;2023-02-28T01:34:01;12.40;;;7.40;;
21036;SDS011;10677;50.942;4.028;2023-02-28T01:36:29;13.75;;;8.10;;
21036;SDS011;10677;50.942;4.028;2023-02-28T01:38:55;13.52;;;7.88;;
21036;SDS011;10677;50.942;4.028;2023-02-28T01:41:26;14.93;;;8.93;;
21036;SDS011;10677;50.942;4.028;2023-02-28T01:46:22;14.77;;;7.30;;
21036;SDS011;10677;50.942;4.028;2023-02-28T01:48:49;12.60;;;7.57;;
21036;SDS011;10677;50.942;4.028;2023-02-28T01:51:26;20.30;;;8.23;;
21036;SDS011;10677;50.942;4.028;2023-02-28T01:54:05;12.93;;;7.60;;
21036;SDS011;10677;50.942;4.028;2023-02-28T01:56:38;13.88;;;8.05;;
21036;SDS011;10677;50.942;4.028;2023-02-28T01:59:12;15.05;;;7.53;;
21036;SDS011;10677;50.942;4.028;2023-02-28T02:01:45;12.52;;;7.88;;
21036;SDS011;10677;50.942;4.028;2023-02-28T02:04:10;12.77;;;7.63;;
21036;SDS011;10677;50.942;4.028;2023-02-28T02:06:38;11.15;;;7.65;;
21036;SDS011;10677;50.942;4.028;2023-02-28T02:09:08;13.32;;;7.50;;
21036;SDS011;10677;50.942;4.028;2023-02-28T02:11:34;16.83;;;8.05;;
21036;SDS011;10677;50.942;4.028;2023-02-28T02:24:46;11.80;;;7.82;;
21036;SDS011;10677;50.942;4.028;2023-02-28T02:30:19;12.38;;;7.93;;
21036;SDS011;10677;50.942;4.028;2023-02-28T02:36:00;15.77;;;8.57;;
21036;SDS011;10677;50.942;4.028;2023-02-28T02:38:38;19.83;;;9.52;;
21036;SDS011;10677;50.942;4.028;2023-02-28T02:41:17;22.98;;;10.10;;
21036;SDS011;10677;50.942;4.028;2023-02-28T02:44:00;22.48;;;10.38;;
21036;SDS011;10677;50.942;4.028;2023-02-28T02:46:29;17.55;;;9.98;;
21036;SDS011;10677;50.942;4.028;2023-02-28T02:49:19;22.33;;;10.80;;
21036;SDS011;10677;50.942;4.028;2023-02-28T02:51:52;13.68;;;7.60;;
21036;SDS011;10677;50.942;4.028;2023-02-28T02:54:24;14.48;;;7.68;;
21036;SDS011;10677;50.942;4.028;2023-02-28T02:56:54;11.40;;;7.55;;
21036;SDS011;10677;50.942;4.028;2023-02-28T02:59:23;13.48;;;7.70;;
21036;SDS011;10677;50.942;4.028;2023-02-28T03:01:54;14.10;;;8.23;;
21036;SDS011;10677;50.942;4.028;2023-02-28T03:04:23;15.02;;;7.75;;
21036;SDS011;10677;50.942;4.028;2023-02-28T03:06:52;15.70;;;7.93;;
21036;SDS011;10677;50.942;4.028;2023-02-28T03:09:20;12.23;;;7.35;;
21036;SDS011;10677;50.942;4.028;2023-02-28T03:11:46;14.88;;;7.85;;
21036;SDS011;10677;50.942;4.028;2023-02-28T03:30:49;16.55;;;8.43;;
21036;SDS011;10677;50.942;4.028;2023-02-28T03:33:29;13.95;;;8.05;;
21036;SDS011;10677;50.942;4.028;2023-02-28T03:36:01;14.38;;;7.97;;
21036;SDS011;10677;50.942;4.028;2023-02-28T03:41:10;15.20;;;8.02;;
21036;SDS011;10677;50.942;4.028;2023-02-28T03:43:41;15.43;;;7.97;;
21036;SDS011;10677;50.942;4.028;2023-02-28T03:46:15;13.70;;;7.88;;
21036;SDS011;10677;50.942;4.028;2023-02-28T03:48:51;19.17;;;8.80;;
21036;SDS011;10677;50.942;4.028;2023-02-28T03:51:36;18.80;;;8.63;;
21036;SDS011;10677;50.942;4.028;2023-02-28T03:54:15;16.70;;;8.68;;
21036;SDS011;10677;50.942;4.028;2023-02-28T03:56:52;14.77;;;8.77;;
21036;SDS011;10677;50.942;4.028;2023-02-28T03:59:28;13.00;;;7.85;;
21036;SDS011;10677;50.942;4.028;2023-02-28T04:01:57;14.93;;;7.85;;
21036;SDS011;10677;50.942;4.028;2023-02-28T04:04:24;15.43;;;8.45;;
21036;SDS011;10677;50.942;4.028;2023-02-28T04:06:53;14.75;;;8.70;;
21036;SDS011;10677;50.942;4.028;2023-02-28T04:09:30;14.13;;;8.00;;
21036;SDS011;10677;50.942;4.028;2023-02-28T04:11:55;14.05;;;8.48;;
21036;SDS011;10677;50.942;4.028;2023-02-28T04:14:21;15.43;;;8.05;;
21036;SDS011;10677;50.942;4.028;2023-02-28T04:16:47;15.20;;;8.43;;
21036;SDS011;10677;50.942;4.028;2023-02-28T04:19:14;13.07;;;8.32;;
21036;SDS011;10677;50.942;4.028;2023-02-28T04:21:41;13.90;;;8.82;;
21036;SDS011;10677;50.942;4.028;2023-02-28T04:24:09;15.43;;;8.82;;
21036;SDS011;10677;50.942;4.028;2023-02-28T04:26:39;18.98;;;8.93;;
21036;SDS011;10677;50.942;4.028;2023-02-28T04:29:06;14.85;;;8.05;;
21036;SDS011;10677;50.942;4.028;2023-02-28T04:31:32;13.95;;;8.65;;
21036;SDS011;10677;50.942;4.028;2023-02-28T04:33:59;17.25;;;8.93;;
21036;SDS011;10677;50.942;4.028;2023-02-28T04:36:25;16.90;;;9.10;;
21036;SDS011;10677;50.942;4.028;2023-02-28T04:38:51;19.23;;;9.52;;
21036;SDS011;10677;50.942;4.028;2023-02-28T04:41:17;17.13;;;8.93;;
21036;SDS011;10677;50.942;4.028;2023-02-28T04:43:43;16.38;;;9.23;;
21036;SDS011;10677;50.942;4.028;2023-02-28T04:46:09;14.82;;;8.82;;
21036;SDS011;10677;50.942;4.028;2023-02-28T04:48:36;13.65;;;9.38;;
21036;SDS011;10677;50.942;4.028;2023-02-28T04:53:30;16.13;;;8.68;;
21036;SDS011;10677;50.942;4.028;2023-02-28T04:55:56;14.77;;;9.13;;
21036;SDS011;10677;50.942;4.028;2023-02-28T04:58:23;15.93;;;8.68;;
21036;SDS011;10677;50.942;4.028;2023-02-28T05:00:49;15.43;;;8.05;;
21036;SDS011;10677;50.942;4.028;2023-02-28T05:03:15;13.60;;;8.25;;
21036;SDS011;10677;50.942;4.028;2023-02-28T05:05:41;14.07;;;8.07;;
21036;SDS011;10677;50.942;4.028;2023-02-28T05:08:07;14.27;;;8.55;;
21036;SDS011;10677;50.942;4.028;2023-02-28T05:10:32;13.52;;;8.18;;
21036;SDS011;10677;50.942;4.028;2023-02-28T05:12:58;13.90;;;8.82;;
21036;SDS011;10677;50.942;4.028;2023-02-28T05:15:24;14.30;;;8.77;;
21036;SDS011;10677;50.942;4.028;2023-02-28T05:17:49;16.98;;;8.68;;
21036;SDS011;10677;50.942;4.028;2023-02-28T05:20:15;15.07;;;8.85;;
21036;SDS011;10677;50.942;4.028;2023-02-28T05:22:41;13.55;;;8.43;;
21036;SDS011;10677;50.942;4.028;2023-02-28T05:25:12;15.32;;;8.35;;
21036;SDS011;10677;50.942;4.028;2023-02-28T05:27:41;19.80;;;9.60;;
21036;SDS011;10677;50.942;4.028;2023-02-28T05:30:06;14.15;;;8.45;;
21036;SDS011;10677;50.942;4.028;2023-02-28T05:32:35;16.13;;;9.02;;
21036;SDS011;10677;50.942;4.028;2023-02-28T05:35:07;18.35;;;9.18;;
21036;SDS011;10677;50.942;4.028;2023-02-28T05:37:34;15.68;;;8.77;;
21036;SDS011;10677;50.942;4.028;2023-02-28T05:40:00;12.25;;;8.57;;
21036;SDS011;10677;50.942;4.028;2023-02-28T05:42:25;14.27;;;8.35;;
21036;SDS011;10677;50.942;4.028;2023-02-28T05:44:51;14.60;;;8.60;;
21036;SDS011;10677;50.942;4.028;2023-02-28T05:47:17;15.88;;;8.48;;
21036;SDS011;10677;50.942;4.028;2023-02-28T05:49:42;12.50;;;8.23;;
21036;SDS011;10677;50.942;4.028;2023-02-28T05:52:08;13.20;;;8.57;;
21036;SDS011;10677;50.942;4.028;2023-02-28T05:54:33;14.15;;;8.88;;
21036;SDS011;10677;50.942;4.028;2023-02-28T05:56:59;16.88;;;9.13;;
21036;SDS011;10677;50.942;4.028;2023-02-28T05:59:25;17.27;;;8.93;;
21036;SDS011;10677;50.942;4.028;2023-02-28T06:01:50;14.48;;;8.43;;
21036;SDS011;10677;50.942;4.028;2023-02-28T06:04:18;14.40;;;8.73;;
21036;SDS011;10677;50.942;4.028;2023-02-28T06:06:46;16.92;;;8.50;;
21036;SDS011;10677;50.942;4.028;2023-02-28T06:09:13;16.65;;;8.68;;
21036;SDS011;10677;50.942;4.028;2023-02-28T06:11:39;17.00;;;8.88;;
21036;SDS011;10677;50.942;4.028;2023-02-28T06:14:05;15.52;;;8.55;;
21036;SDS011;10677;50.942;4.028;2023-02-28T06:16:31;17.88;;;10.02;;
21036;SDS011;10677;50.942;4.028;2023-02-28T06:18:59;16.95;;;9.50;;
21036;SDS011;10677;50.942;4.028;2023-02-28T06:21:26;14.68;;;8.60;;
21036;SDS011;10677;50.942;4.028;2023-02-28T06:23:52;14.85;;;8.95;;
21036;SDS011;10677;50.942;4.028;2023-02-28T06:26:19;16.10;;;9.50;;
21036;SDS011;10677;50.942;4.028;2023-02-28T06:28:45;14.18;;;8.13;;
21036;SDS011;10677;50.942;4.028;2023-02-28T06:31:14;16.48;;;9.82;;
21036;SDS011;10677;50.942;4.028;2023-02-28T06:33:41;18.52;;;8.73;;
21036;SDS011;10677;50.942;4.028;2023-02-28T06:36:09;16.42;;;8.93;;
21036;SDS011;10677;50.942;4.028;2023-02-28T06:38:36;16.48;;;8.18;;
21036;SDS011;10677;50.942;4.028;2023-02-28T06:41:02;16.15;;;9.82;;
21036;SDS011;10677;50.942;4.028;2023-02-28T06:43:30;14.50;;;8.00;;
21036;SDS011;10677;50.942;4.028;2023-02-28T06:45:58;14.52;;;9.32;;
21036;SDS011;10677;50.942;4.028;2023-02-28T06:48:26;15.70;;;8.35;;
21036;SDS011;10677;50.942;4.028;2023-02-28T06:50:52;15.98;;;8.05;;
21036;SDS011;10677;50.942;4.028;2023-02-28T06:53:26;17.88;;;10.68;;
21036;SDS011;10677;50.942;4.028;2023-02-28T06:55:51;18.88;;;9.85;;
21036;SDS011;10677;50.942;4.028;2023-02-28T06:58:17;22.15;;;13.15;;
21036;SDS011;10677;50.942;4.028;2023-02-28T07:00:44;18.88;;;11.43;;
21036;SDS011;10677;50.942;4.028;2023-02-28T07:03:14;25.50;;;12.85;;
21036;SDS011;10677;50.942;4.028;2023-02-28T07:05:40;17.13;;;10.48;;
21036;SDS011;10677;50.942;4.028;2023-02-28T07:08:07;21.52;;;12.02;;
21036;SDS011;10677;50.942;4.028;2023-02-28T07:10:33;19.85;;;10.05;;
21036;SDS011;10677;50.942;4.028;2023-02-28T07:13:04;27.02;;;12.98;;
21036;SDS011;10677;50.942;4.028;2023-02-28T07:15:30;17.70;;;8.57;;
21036;SDS011;10677;50.942;4.028;2023-02-28T07:17:57;19.88;;;8.93;;
21036;SDS011;10677;50.942;4.028;2023-02-28T07:20:25;45.50;;;24.20;;
21036;SDS011;10677;50.942;4.028;2023-02-28T07:22:51;23.10;;;11.85;;
21036;SDS011;10677;50.942;4.028;2023-02-28T07:25:25;20.63;;;9.68;;
21036;SDS011;10677;50.942;4.028;2023-02-28T07:27:52;15.15;;;7.97;;
21036;SDS011;10677;50.942;4.028;2023-02-28T07:30:18;11.75;;;7.75;;
21036;SDS011;10677;50.942;4.028;2023-02-28T07:32:44;11.25;;;7.25;;
21036;SDS011;10677;50.942;4.028;2023-02-28T07:35:10;16.60;;;7.72;;
21036;SDS011;10677;50.942;4.028;2023-02-28T07:37:36;16.02;;;7.97;;
21036;SDS011;10677;50.942;4.028;2023-02-28T07:40:04;19.23;;;7.35;;
21036;SDS011;10677;50.942;4.028;2023-02-28T07:42:34;16.70;;;7.93;;
21036;SDS011;10677;50.942;4.028;2023-02-28T07:45:02;14.95;;;7.15;;
21036;SDS011;10677;50.942;4.028;2023-02-28T07:47:30;16.10;;;7.75;;
21036;SDS011;10677;50.942;4.028;2023-02-28T07:49:59;11.52;;;6.85;;
21036;SDS011;10677;50.942;4.028;2023-02-28T07:52:27;15.07;;;7.85;;
21036;SDS011;10677;50.942;4.028;2023-02-28T07:54:57;15.48;;;7.95;;
21036;SDS011;10677;50.942;4.028;2023-02-28T07:57:29;11.85;;;8.07;;
21036;SDS011;10677;50.942;4.028;2023-02-28T07:59:58;17.60;;;8.90;;
21036;SDS011;10677;50.942;4.028;2023-02-28T08:02:25;15.45;;;7.82;;
21036;SDS011;10677;50.942;4.028;2023-02-28T08:04:54;16.73;;;8.60;;
21036;SDS011;10677;50.942;4.028;2023-02-28T08:07:20;18.48;;;8.35;;
21036;SDS011;10677;50.942;4.028;2023-02-28T08:09:46;15.88;;;8.68;;
21036;SDS011;10677;50.942;4.028;2023-02-28T08:12:12;23.10;;;11.23;;
21036;SDS011;10677;50.942;4.028;2023-02-28T08:14:38;15.18;;;8.02;;
21036;SDS011;10677;50.942;4.028;2023-02-28T08:17:04;15.00;;;7.22;;
21036;SDS011;10677;50.942;4.028;2023-02-28T08:19:31;11.73;;;6.85;;
21036;SDS011;10677;50.942;4.028;2023-02-28T08:21:57;13.90;;;7.18;;
21036;SDS011;10677;50.942;4.028;2023-02-28T08:24:23;14.18;;;7.78;;
21036;SDS011;10677;50.942;4.028;2023-02-28T08:26:49;18.27;;;7.93;;
21036;SDS011;10677;50.942;4.028;2023-02-28T08:29:15;16.60;;;8.90;;
21036;SDS011;10677;50.942;4.028;2023-02-28T08:31:41;14.02;;;7.72;;
21036;SDS011;10677;50.942;4.028;2023-02-28T08:34:11;13.57;;;8.05;;
21036;SDS011;10677;50.942;4.028;2023-02-28T08:36:39;14.77;;;7.05;;
21036;SDS011;10677;50.942;4.028;2023-02-28T08:39:06;26.10;;;14.95;;
21036;SDS011;10677;50.942;4.028;2023-02-28T08:41:32;11.32;;;5.63;;
21036;SDS011;10677;50.942;4.028;2023-02-28T08:43:58;10.90;;;6.13;;
21036;SDS011;10677;50.942;4.028;2023-02-28T08:46:28;13.32;;;5.70;;
21036;SDS011;10677;50.942;4.028;2023-02-28T08:48:55;12.65;;;5.63;;
21036;SDS011;10677;50.942;4.028;2023-02-28T08:51:26;8.05;;;5.15;;
21036;SDS011;10677;50.942;4.028;2023-02-28T08:53:53;11.45;;;5.20;;
21036;SDS011;10677;50.942;4.028;2023-02-28T08:56:20;8.80;;;5.05;;
21036;SDS011;10677;50.942;4.028;2023-02-28T08:58:47;9.98;;;5.43;;
21036;SDS011;10677;50.942;4.028;2023-02-28T09:01:15;8.35;;;5.60;;
21036;SDS011;10677;50.942;4.028;2023-02-28T09:03:43;9.77;;;5.55;;
21036;SDS011;10677;50.942;4.028;2023-02-28T09:06:11;8.82;;;5.30;;
21036;SDS011;10677;50.942;4.028;2023-02-28T09:08:38;16.83;;;8.98;;
21036;SDS011;10677;50.942;4.028;2023-02-28T09:11:04;13.32;;;7.47;;
21036;SDS011;10677;50.942;4.028;2023-02-28T09:13:31;18.10;;;9.52;;
21036;SDS011;10677;50.942;4.028;2023-02-28T09:16:00;9.68;;;4.80;;
21036;SDS011;10677;50.942;4.028;2023-02-28T09:18:27;7.30;;;4.00;;
21036;SDS011;10677;50.942;4.028;2023-02-28T09:20:53;11.65;;;4.93;;
21036;SDS011;10677;50.942;4.028;2023-02-28T09:23:19;7.03;;;4.03;;
21036;SDS011;10677;50.942;4.028;2023-02-28T09:25:49;6.63;;;3.38;;
21036;SDS011;10677;50.942;4.028;2023-02-28T09:28:17;7.88;;;3.72;;
21036;SDS011;10677;50.942;4.028;2023-02-28T09:30:44;5.80;;;3.17;;
21036;SDS011;10677;50.942;4.028;2023-02-28T09:33:12;9.00;;;3.60;;
21036;SDS011;10677;50.942;4.028;2023-02-28T09:35:38;7.95;;;3.17;;
21036;SDS011;10677;50.942;4.028;2023-02-28T09:38:04;6.97;;;3.05;;
21036;SDS011;10677;50.942;4.028;2023-02-28T09:40:34;7.05;;;3.53;;
21036;SDS011;10677;50.942;4.028;2023-02-28T09:43:11;7.53;;;2.65;;
21036;SDS011;10677;50.942;4.028;2023-02-28T09:45:40;9.43;;;3.80;;
21036;SDS011;10677;50.942;4.028;2023-02-28T09:48:12;7.75;;;3.42;;
21036;SDS011;10677;50.942;4.028;2023-02-28T09:50:53;5.55;;;2.80;;
21036;SDS011;10677;50.942;4.028;2023-02-28T09:53:30;8.15;;;3.55;;
21036;SDS011;10677;50.942;4.028;2023-02-28T09:56:09;5.90;;;2.97;;
21036;SDS011;10677;50.942;4.028;2023-02-28T10:04:38;14.50;;;3.42;;
21036;SDS011;10677;50.942;4.028;2023-02-28T10:07:48;8.50;;;3.53;;
21036;SDS011;10677;50.942;4.028;2023-02-28T10:13:36;7.28;;;3.20;;
21036;SDS011;10677;50.942;4.028;2023-02-28T10:19:16;5.53;;;2.63;;
21036;SDS011;10677;50.942;4.028;2023-02-28T10:21:57;4.30;;;2.03;;
21036;SDS011;10677;50.942;4.028;2023-02-28T10:24:28;4.70;;;2.00;;
21036;SDS011;10677;50.942;4.028;2023-02-28T10:26:56;8.82;;;2.45;;
21036;SDS011;10677;50.942;4.028;2023-02-28T10:29:30;5.68;;;2.17;;
21036;SDS011;10677;50.942;4.028;2023-02-28T10:31:58;4.93;;;2.08;;
21036;SDS011;10677;50.942;4.028;2023-02-28T10:34:27;4.82;;;2.00;;
21036;SDS011;10677;50.942;4.028;2023-02-28T10:36:53;5.38;;;2.42;;
21036;SDS011;10677;50.942;4.028;2023-02-28T10:39:40;5.35;;;2.20;;
21036;SDS011;10677;50.942;4.028;2023-02-28T10:45:07;4.38;;;1.90;;
21036;SDS011;10677;50.942;4.028;2023-02-28T10:47:49;5.72;;;1.90;;
21036;SDS011;10677;50.942;4.028;2023-02-28T10:55:59;4.15;;;2.20;;
21036;SDS011;10677;50.942;4.028;2023-02-28T10:58:32;7.15;;;3.60;;
21036;SDS011;10677;50.942;4.028;2023-02-28T11:01:39;5.25;;;2.30;;
21036;SDS011;10677;50.942;4.028;2023-02-28T11:04:19;6.40;;;3.00;;
21036;SDS011;10677;50.942;4.028;2023-02-28T11:06:46;5.65;;;2.10;;
21036;SDS011;10677;50.942;4.028;2023-02-28T11:09:16;5.57;;;2.80;;
21036;SDS011;10677;50.942;4.028;2023-02-28T11:11:49;7.07;;;3.20;;
21036;SDS011;10677;50.942;4.028;2023-02-28T11:14:23;5.45;;;2.00;;
21036;SDS011;10677;50.942;4.028;2023-02-28T11:16:51;7.88;;;3.50;;
21036;SDS011;10677;50.942;4.028;2023-02-28T11:19:19;5.13;;;2.25;;
21036;SDS011;10677;50.942;4.028;2023-02-28T11:21:53;2.70;;;1.58;;
21036;SDS011;10677;50.942;4.028;2023-02-28T11:24:35;3.78;;;1.90;;
21036;SDS011;10677;50.942;4.028;2023-02-28T11:27:14;7.95;;;3.30;;
21036;SDS011;10677;50.942;4.028;2023-02-28T11:29:55;3.55;;;2.10;;
21036;SDS011;10677;50.942;4.028;2023-02-28T11:32:26;3.22;;;1.80;;
21036;SDS011;10677;50.942;4.028;2023-02-28T11:35:01;4.10;;;2.08;;
21036;SDS011;10677;50.942;4.028;2023-02-28T11:37:29;5.90;;;2.88;;
21036;SDS011;10677;50.942;4.028;2023-02-28T11:39:56;10.55;;;5.60;;
21036;SDS011;10677;50.942;4.028;2023-02-28T11:47:38;4.13;;;2.00;;
21036;SDS011;10677;50.942;4.028;2023-02-28T11:50:32;6.22;;;2.08;;
21036;SDS011;10677;50.942;4.028;2023-02-28T12:13:26;4.05;;;1.88;;
21036;SDS011;10677;50.942;4.028;2023-02-28T12:18:47;3.92;;;2.20;;
21036;SDS011;10677;50.942;4.028;2023-02-28T12:26:58;4.40;;;2.20;;
21036;SDS011;10677;50.942;4.028;2023-02-28T12:30:30;4.53;;;2.00;;
21036;SDS011;10677;50.942;4.028;2023-02-28T12:35:47;6.05;;;2.38;;
21036;SDS011;10677;50.942;4.028;2023-02-28T12:41:24;4.93;;;2.00;;
21036;SDS011;10677;50.942;4.028;2023-02-28T12:44:06;3.88;;;2.50;;
21036;SDS011;10677;50.942;4.028;2023-02-28T12:47:12;9.98;;;2.58;;
21036;SDS011;10677;50.942;4.028;2023-02-28T12:49:54;5.03;;;2.47;;
21036;SDS011;10677;50.942;4.028;2023-02-28T12:52:41;4.63;;;2.10;;
21036;SDS011;10677;50.942;4.028;2023-02-28T12:55:35;3.13;;;2.10;;
21036;SDS011;10677;50.942;4.028;2023-02-28T13:07:08;4.40;;;2.17;;
21036;SDS011;10677;50.942;4.028;2023-02-28T13:09:37;4.85;;;2.35;;
21036;SDS011;10677;50.942;4.028;2023-02-28T13:12:14;4.82;;;2.15;;
21036;SDS011;10677;50.942;4.028;2023-02-28T13:15:07;6.45;;;2.45;;
21036;SDS011;10677;50.942;4.028;2023-02-28T13:17:39;3.88;;;2.50;;
21036;SDS011;10677;50.942;4.028;2023-02-28T13:20:14;4.05;;;2.50;;
21036;SDS011;10677;50.942;4.028;2023-02-28T13:22:49;5.65;;;2.17;;
21036;SDS011;10677;50.942;4.028;2023-02-28T13:28:00;4.22;;;2.17;;
21036;SDS011;10677;50.942;4.028;2023-02-28T13:38:42;3.15;;;2.22;;
21036;SDS011;10677;50.942;4.028;2023-02-28T13:44:02;4.28;;;2.33;;
21036;SDS011;10677;50.942;4.028;2023-02-28T13:47:23;3.45;;;2.10;;
21036;SDS011;10677;50.942;4.028;2023-02-28T13:49:27;3.97;;;2.28;;
21036;SDS011;10677;50.942;4.028;2023-02-28T14:05:32;4.45;;;2.72;;
21036;SDS011;10677;50.942;4.028;2023-02-28T14:08:04;9.38;;;2.40;;
21036;SDS011;10677;50.942;4.028;2023-02-28T14:10:32;5.03;;;3.00;;
21036;SDS011;10677;50.942;4.028;2023-02-28T14:13:14;5.53;;;2.65;;
21036;SDS011;10677;50.942;4.028;2023-02-28T14:15:56;4.15;;;2.28;;
21036;SDS011;10677;50.942;4.028;2023-02-28T14:20:55;3.97;;;2.60;;
21036;SDS011;10677;50.942;4.028;2023-02-28T14:23:31;4.15;;;2.65;;
21036;SDS011;10677;50.942;4.028;2023-02-28T14:26:28;4.15;;;2.40;;
21036;SDS011;10677;50.942;4.028;2023-02-28T14:35:09;5.53;;;2.40;;
21036;SDS011;10677;50.942;4.028;2023-02-28T14:37:47;4.03;;;2.80;;
21036;SDS011;10677;50.942;4.028;2023-02-28T14:40:27;8.35;;;2.50;;
21036;SDS011;10677;50.942;4.028;2023-02-28T14:43:00;4.60;;;2.83;;
21036;SDS011;10677;50.942;4.028;2023-02-28T14:45:31;4.22;;;2.58;;
21036;SDS011;10677;50.942;4.028;2023-02-28T14:48:01;3.70;;;2.22;;
21036;SDS011;10677;50.942;4.028;2023-02-28T14:50:38;4.35;;;2.63;;
21036;SDS011;10677;50.942;4.028;2023-02-28T14:53:03;3.45;;;2.28;;
21036;SDS011;10677;50.942;4.028;2023-02-28T14:55:43;6.78;;;2.60;;
21036;SDS011;10677;50.942;4.028;2023-02-28T14:58:30;6.32;;;2.72;;
21036;SDS011;10677;50.942;4.028;2023-02-28T15:01:01;5.40;;;2.40;;
21036;SDS011;10677;50.942;4.028;2023-02-28T15:06:00;7.28;;;2.83;;
21036;SDS011;10677;50.942;4.028;2023-02-28T15:08:29;6.15;;;3.15;;
21036;SDS011;10677;50.942;4.028;2023-02-28T15:11:07;3.38;;;2.53;;
21036;SDS011;10677;50.942;4.028;2023-02-28T15:13:45;5.75;;;2.72;;
21036;SDS011;10677;50.942;4.028;2023-02-28T15:16:15;5.15;;;2.90;;
21036;SDS011;10677;50.942;4.028;2023-02-28T15:18:46;8.10;;;3.20;;
21036;SDS011;10677;50.942;4.028;2023-02-28T15:21:15;5.15;;;2.88;;
21036;SDS011;10677;50.942;4.028;2023-02-28T15:23:49;4.95;;;2.75;;
21036;SDS011;10677;50.942;4.028;2023-02-28T15:26:22;4.95;;;2.90;;
21036;SDS011;10677;50.942;4.028;2023-02-28T15:28:56;6.20;;;3.47;;
21036;SDS011;10677;50.942;4.028;2023-02-28T15:31:41;9.82;;;3.03;;
21036;SDS011;10677;50.942;4.028;2023-02-28T15:34:43;3.90;;;2.13;;
21036;SDS011;10677;50.942;4.028;2023-02-28T15:37:23;4.50;;;2.60;;
21036;SDS011;10677;50.942;4.028;2023-02-28T15:39:50;3.90;;;2.30;;
21036;SDS011;10677;50.942;4.028;2023-02-28T15:42:18;5.40;;;2.70;;
21036;SDS011;10677;50.942;4.028;2023-02-28T15:44:47;4.45;;;2.63;;
21036;SDS011;10677;50.942;4.028;2023-02-28T15:47:17;5.18;;;3.00;;
21036;SDS011;10677;50.942;4.028;2023-02-28T15:49:52;5.95;;;3.08;;
21036;SDS011;10677;50.942;4.028;2023-02-28T15:54:56;6.07;;;2.58;;
21036;SDS011;10677;50.942;4.028;2023-02-28T15:57:26;4.80;;;2.55;;
21036;SDS011;10677;50.942;4.028;2023-02-28T15:59:59;8.32;;;3.05;;
21036;SDS011;10677;50.942;4.028;2023-02-28T16:02:30;7.03;;;2.88;;
21036;SDS011;10677;50.942;4.028;2023-02-28T16:04:57;5.05;;;2.72;;
21036;SDS011;10677;50.942;4.028;2023-02-28T16:07:33;4.53;;;2.55;;
21036;SDS011;10677;50.942;4.028;2023-02-28T16:10:00;3.88;;;2.60;;
21036;SDS011;10677;50.942;4.028;2023-02-28T16:12:28;5.80;;;3.10;;
21036;SDS011;10677;50.942;4.028;2023-02-28T16:14:57;5.95;;;2.88;;
21036;SDS011;10677;50.942;4.028;2023-02-28T16:17:28;4.25;;;2.30;;
21036;SDS011;10677;50.942;4.028;2023-02-28T16:19:56;5.38;;;2.90;;
21036;SDS011;10677;50.942;4.028;2023-02-28T16:22:23;6.05;;;3.17;;
21036;SDS011;10677;50.942;4.028;2023-02-28T16:24:48;6.15;;;2.78;;
21036;SDS011;10677;50.942;4.028;2023-02-28T16:27:33;5.80;;;2.97;;
21036;SDS011;10677;50.942;4.028;2023-02-28T16:30:04;5.97;;;3.10;;
21036;SDS011;10677;50.942;4.028;2023-02-28T16:32:32;6.75;;;3.28;;
21036;SDS011;10677;50.942;4.028;2023-02-28T16:35:01;6.18;;;3.10;;
21036;SDS011;10677;50.942;4.028;2023-02-28T16:37:26;8.57;;;3.35;;
21036;SDS011;10677;50.942;4.028;2023-02-28T16:39:52;4.20;;;3.03;;
21036;SDS011;10677;50.942;4.028;2023-02-28T16:42:28;6.03;;;2.80;;
21036;SDS011;10677;50.942;4.028;2023-02-28T16:44:54;5.65;;;3.28;;
21036;SDS011;10677;50.942;4.028;2023-02-28T16:47:20;6.10;;;3.30;;
21036;SDS011;10677;50.942;4.028;2023-02-28T16:49:47;6.55;;;3.13;;
21036;SDS011;10677;50.942;4.028;2023-02-28T16:52:12;5.03;;;3.20;;
21036;SDS011;10677;50.942;4.028;2023-02-28T16:54:39;7.30;;;3.17;;
21036;SDS011;10677;50.942;4.028;2023-02-28T16:57:06;7.13;;;4.45;;
21036;SDS011;10677;50.942;4.028;2023-02-28T16:59:40;7.55;;;4.43;;
21036;SDS011;10677;50.942;4.028;2023-02-28T17:02:12;9.55;;;3.78;;
21036;SDS011;10677;50.942;4.028;2023-02-28T17:04:40;6.30;;;3.53;;
21036;SDS011;10677;50.942;4.028;2023-02-28T17:07:08;4.57;;;3.22;;
21036;SDS011;10677;50.942;4.028;2023-02-28T17:09:37;6.05;;;3.60;;
21036;SDS011;10677;50.942;4.028;2023-02-28T17:12:07;10.60;;;4.10;;
21036;SDS011;10677;50.942;4.028;2023-02-28T17:14:33;6.72;;;3.67;;
21036;SDS011;10677;50.942;4.028;2023-02-28T17:16:59;10.90;;;3.85;;
21036;SDS011;10677;50.942;4.028;2023-02-28T17:19:25;5.53;;;3.53;;
21036;SDS011;10677;50.942;4.028;2023-02-28T17:21:52;7.28;;;3.22;;
21036;SDS011;10677;50.942;4.028;2023-02-28T17:24:18;6.00;;;3.78;;
21036;SDS011;10677;50.942;4.028;2023-02-28T17:26:44;6.95;;;4.00;;
21036;SDS011;10677;50.942;4.028;2023-02-28T17:29:17;6.57;;;3.70;;
21036;SDS011;10677;50.942;4.028;2023-02-28T17:31:44;9.35;;;3.75;;